createdAt,value
2022-08-17T00:01:51.443Z,10.80
2022-08-17T00:04:20.366Z,10.43
2022-08-17T00:06:49.093Z,10.80
2022-08-17T00:09:18.889Z,12.57
2022-08-17T00:12:42.278Z,12.02
2022-08-17T00:14:34.949Z,11.70
2022-08-17T00:17:03.940Z,12.48
2022-08-17T00:19:32.708Z,10.90
2022-08-17T00:22:32.353Z,9.45
2022-08-17T00:24:50.313Z,9.18
2022-08-17T00:27:17.667Z,8.23
2022-08-17T00:29:45.945Z,8.55
2022-08-17T00:33:12.286Z,8.38
2022-08-17T00:35:01.243Z,7.57
2022-08-17T00:37:28.525Z,7.05
2022-08-17T00:39:55.775Z,6.93
2022-08-17T00:42:25.392Z,7.50
2022-08-17T00:44:56.184Z,7.55
2022-08-17T00:47:23.366Z,6.45
2022-08-17T00:49:50.593Z,7.43
2022-08-17T00:52:21.756Z,7.00
2022-08-17T00:54:49.986Z,7.22
2022-08-17T00:57:31.855Z,7.00
2022-08-17T01:00:06.527Z,8.40
2022-08-17T01:02:42.378Z,7.85
2022-08-17T01:05:13.256Z,8.07
2022-08-17T01:07:40.938Z,7.68
2022-08-17T01:10:57.287Z,7.53
2022-08-17T01:12:58.779Z,7.23
2022-08-17T01:15:26.113Z,7.55
2022-08-17T01:17:53.287Z,7.75
2022-08-17T01:20:20.669Z,8.45
2022-08-17T01:22:47.885Z,7.93
2022-08-17T01:25:15.384Z,7.85
2022-08-17T01:27:43.234Z,8.93
2022-08-17T01:30:58.226Z,8.02
2022-08-17T01:32:59.946Z,7.53
2022-08-17T01:35:27.224Z,7.80
2022-08-17T01:37:54.440Z,8.10
2022-08-17T01:40:29.880Z,7.68
2022-08-17T01:42:59.349Z,7.70
2022-08-17T01:45:33.114Z,7.60
2022-08-17T01:48:00.823Z,8.77
2022-08-17T01:50:29.741Z,7.50
2022-08-17T01:53:00.875Z,7.97
2022-08-17T01:55:31.542Z,8.40
2022-08-17T01:57:59.018Z,7.68
2022-08-17T02:00:27.623Z,7.57
2022-08-17T02:03:16.310Z,8.15
2022-08-17T02:05:43.672Z,8.13
2022-08-17T02:08:20.181Z,7.72
2022-08-17T02:10:48.285Z,7.97
2022-08-17T02:13:15.873Z,8.10
2022-08-17T02:15:43.167Z,7.88
2022-08-17T02:18:10.954Z,7.88
2022-08-17T02:20:42.577Z,7.55
2022-08-17T02:23:11.909Z,8.25
2022-08-17T02:25:43.366Z,7.88
2022-08-17T02:28:10.974Z,7.93
2022-08-17T02:30:59.468Z,8.38
2022-08-17T02:33:42.449Z,9.05
2022-08-17T02:36:11.139Z,9.20
2022-08-17T02:38:39.434Z,8.10
2022-08-17T02:41:06.784Z,8.23
2022-08-17T02:43:34.123Z,8.60
2022-08-17T02:46:01.374Z,8.85
2022-08-17T02:48:31.031Z,8.35
2022-08-17T02:50:59.432Z,8.30
2022-08-17T02:53:26.716Z,8.13
2022-08-17T02:55:54.376Z,8.55
2022-08-17T02:58:34.743Z,9.27
2022-08-17T03:01:03.397Z,8.38
2022-08-17T03:03:30.770Z,8.48
2022-08-17T03:05:57.957Z,8.40
2022-08-17T03:08:25.590Z,8.40
2022-08-17T03:10:53.256Z,8.07
2022-08-17T03:13:20.815Z,8.43
2022-08-17T03:15:48.541Z,8.63
2022-08-17T03:18:24.202Z,8.40
2022-08-17T03:20:53.610Z,9.27
2022-08-17T03:23:23.770Z,8.80
2022-08-17T03:25:52.935Z,8.63
2022-08-17T03:28:21.086Z,9.07
2022-08-17T03:30:48.475Z,8.32
2022-08-17T03:33:16.252Z,8.80
2022-08-17T03:35:43.596Z,8.52
2022-08-17T03:38:11.599Z,7.60
2022-08-17T03:40:57.975Z,9.15
2022-08-17T03:43:27.613Z,8.43
2022-08-17T03:46:28.864Z,8.63
2022-08-17T03:49:19.584Z,8.80
2022-08-17T03:52:05.536Z,8.18
2022-08-17T03:54:51.683Z,8.75
2022-08-17T03:57:19.277Z,8.02
2022-08-17T03:59:46.875Z,8.85
2022-08-17T04:02:18.380Z,9.45
2022-08-17T04:04:45.672Z,8.75
2022-08-17T04:07:12.854Z,8.45
2022-08-17T04:09:40.142Z,8.88
2022-08-17T04:12:07.481Z,8.85
2022-08-17T04:14:52.076Z,8.68
2022-08-17T04:17:21.752Z,9.32
2022-08-17T04:19:48.978Z,9.40
2022-08-17T04:22:31.906Z,9.30
2022-08-17T04:25:05.906Z,9.65
2022-08-17T04:27:33.232Z,8.80
2022-08-17T04:30:00.458Z,8.93
2022-08-17T04:33:04.597Z,8.70
2022-08-17T04:35:18.444Z,8.60
2022-08-17T04:37:46.017Z,9.00
2022-08-17T04:40:31.974Z,8.55
2022-08-17T04:43:03.035Z,8.18
2022-08-17T04:45:32.017Z,8.77
2022-08-17T04:47:59.980Z,9.65
2022-08-17T04:50:27.572Z,10.77
2022-08-17T04:52:55.123Z,9.85
2022-08-17T04:55:22.623Z,11.70
2022-08-17T04:57:49.910Z,9.80
2022-08-17T05:00:17.168Z,9.02
2022-08-17T05:02:51.158Z,9.23
2022-08-17T05:05:19.797Z,9.60
2022-08-17T05:07:48.074Z,9.57
2022-08-17T05:10:15.433Z,10.05
2022-08-17T05:12:42.746Z,11.30
2022-08-17T05:15:12.830Z,11.27
2022-08-17T05:17:40.056Z,10.40
2022-08-17T05:20:07.463Z,8.88
2022-08-17T05:22:34.639Z,9.38
2022-08-17T05:25:01.957Z,8.93
2022-08-17T05:27:35.084Z,8.75
2022-08-17T05:30:02.936Z,9.63
2022-08-17T05:32:38.701Z,8.93
2022-08-17T05:35:07.678Z,9.05
2022-08-17T05:37:34.835Z,9.60
2022-08-17T05:40:02.105Z,9.30
2022-08-17T05:42:29.421Z,9.25
2022-08-17T05:44:58.456Z,8.63
2022-08-17T05:47:26.603Z,8.60
2022-08-17T05:49:54.059Z,8.98
2022-08-17T05:52:24.313Z,8.40
2022-08-17T05:55:04.033Z,7.05
2022-08-17T05:57:31.217Z,6.97
2022-08-17T06:00:11.154Z,6.72
2022-08-17T06:02:56.958Z,6.63
2022-08-17T06:05:43.082Z,6.80
2022-08-17T06:08:15.470Z,6.63
2022-08-17T06:10:47.870Z,6.88
2022-08-17T06:13:32.246Z,6.97
2022-08-17T06:16:03.661Z,7.25
2022-08-17T06:18:37.153Z,6.85
2022-08-17T06:21:06.662Z,6.93
2022-08-17T06:23:36.787Z,6.68
2022-08-17T06:28:37.928Z,7.28
2022-08-17T06:31:08.839Z,7.88
2022-08-17T06:33:38.184Z,6.72
2022-08-17T06:36:24.653Z,7.40
2022-08-17T06:39:11.295Z,7.20
2022-08-17T06:41:51.259Z,7.53
2022-08-17T06:44:49.746Z,7.72
2022-08-17T06:47:13.574Z,7.70
2022-08-17T06:49:44.858Z,8.00
2022-08-17T06:52:45.268Z,6.82
2022-08-17T06:55:07.222Z,7.88
2022-08-17T06:57:37.660Z,7.75
2022-08-17T07:00:19.565Z,7.45
2022-08-17T07:02:53.559Z,7.47
2022-08-17T07:05:22.535Z,7.50
2022-08-17T07:08:05.670Z,6.97
2022-08-17T07:10:38.697Z,7.32
2022-08-17T07:13:29.607Z,7.75
2022-08-17T07:16:13.254Z,7.25
2022-08-17T07:18:40.519Z,8.35
2022-08-17T07:21:20.710Z,7.40
2022-08-17T07:24:01.067Z,8.30
2022-08-17T07:26:28.722Z,7.32
2022-08-17T07:28:56.284Z,8.43
2022-08-17T07:31:25.637Z,7.97
2022-08-17T07:34:08.388Z,8.52
2022-08-17T07:36:35.663Z,8.40
2022-08-17T07:39:03.943Z,8.25
2022-08-17T07:41:53.447Z,7.53
2022-08-17T07:44:21.620Z,8.00
2022-08-17T07:47:09.230Z,7.72
2022-08-17T07:49:37.944Z,7.88
2022-08-17T07:52:47.509Z,8.15
2022-08-17T07:54:54.634Z,7.75
2022-08-17T07:57:27.925Z,8.48
2022-08-17T08:00:03.277Z,7.55
2022-08-17T08:02:38.240Z,7.50
2022-08-17T08:05:08.630Z,8.40
2022-08-17T08:07:39.348Z,7.78
2022-08-17T08:10:06.691Z,8.25
2022-08-17T08:12:34.237Z,8.38
2022-08-17T08:15:04.466Z,7.95
2022-08-17T08:17:36.481Z,7.95
2022-08-17T08:20:50.898Z,8.55
2022-08-17T08:23:15.607Z,7.82
2022-08-17T08:26:01.378Z,8.13
2022-08-17T08:28:34.194Z,8.27
2022-08-17T08:31:08.307Z,8.32
2022-08-17T08:33:35.591Z,8.50
2022-08-17T08:36:09.409Z,8.30
2022-08-17T08:38:40.171Z,7.93
2022-08-17T08:41:27.750Z,8.90
2022-08-17T08:43:55.061Z,9.43
2022-08-17T08:46:22.274Z,9.15
2022-08-17T08:49:06.505Z,8.77
2022-08-17T08:54:15.429Z,9.02
2022-08-17T09:00:15.216Z,8.50
2022-08-17T09:03:02.991Z,8.45
2022-08-17T09:05:45.651Z,9.32
2022-08-17T09:08:28.155Z,8.50
2022-08-17T09:11:02.576Z,9.45
2022-08-17T09:13:32.802Z,9.55
2022-08-17T09:16:03.952Z,8.40
2022-08-17T09:19:01.333Z,9.20
2022-08-17T09:21:48.493Z,8.68
2022-08-17T09:24:20.886Z,9.20
2022-08-17T09:27:14.500Z,8.70
2022-08-17T09:29:53.177Z,8.85
2022-08-17T09:32:25.608Z,9.32
2022-08-17T09:35:00.174Z,8.80
2022-08-17T09:37:43.892Z,9.02
2022-08-17T09:40:27.974Z,8.82
2022-08-17T09:43:15.790Z,8.63
2022-08-17T09:45:52.802Z,8.30
2022-08-17T09:48:29.622Z,8.73
2022-08-17T09:51:05.766Z,9.80
2022-08-17T09:53:34.183Z,7.90
2022-08-17T09:56:10.742Z,8.88
2022-08-17T09:58:47.811Z,9.27
2022-08-17T10:01:36.806Z,9.18
2022-08-17T10:04:04.149Z,9.40
2022-08-17T10:06:33.722Z,9.38
2022-08-17T10:09:08.436Z,9.30
2022-08-17T10:12:10.076Z,9.25
2022-08-17T10:14:44.164Z,9.77
2022-08-17T10:17:30.380Z,9.27
2022-08-17T10:20:07.532Z,9.95
2022-08-17T10:22:56.279Z,9.82
2022-08-17T10:25:54.592Z,8.95
2022-08-17T10:28:30.255Z,8.85
2022-08-17T10:31:23.401Z,9.38
2022-08-17T10:33:52.273Z,10.27
2022-08-17T10:36:24.235Z,9.70
2022-08-17T10:39:02.847Z,9.15
2022-08-17T10:41:36.840Z,9.57
2022-08-17T10:44:36.955Z,10.00
2022-08-17T10:47:15.622Z,9.77
2022-08-17T10:49:47.908Z,9.63
2022-08-17T10:52:22.105Z,9.70
2022-08-17T10:54:58.279Z,9.70
2022-08-17T10:57:32.370Z,9.23
2022-08-17T11:00:00.430Z,10.38
2022-08-17T11:02:28.117Z,9.25
2022-08-17T11:05:02.013Z,10.75
2022-08-17T11:07:35.227Z,9.05
2022-08-17T11:10:21.147Z,9.38
2022-08-17T11:13:01.267Z,9.48
2022-08-17T11:15:47.447Z,10.15
2022-08-17T11:18:50.834Z,10.00
2022-08-17T11:21:39.899Z,9.68
2022-08-17T11:24:25.608Z,9.90
2022-08-17T11:27:12.326Z,9.77
2022-08-17T11:30:02.156Z,10.55
2022-08-17T11:32:33.192Z,9.65
2022-08-17T11:35:12.942Z,9.88
2022-08-17T11:38:00.860Z,9.75
2022-08-17T11:40:28.036Z,9.88
2022-08-17T11:43:15.436Z,9.23
2022-08-17T11:46:02.276Z,9.68
2022-08-17T11:48:57.273Z,9.80
2022-08-17T11:51:34.774Z,9.48
2022-08-17T11:57:21.543Z,9.60
2022-08-17T12:02:35.276Z,8.80
2022-08-17T12:05:11.941Z,8.73
2022-08-17T12:07:59.586Z,8.85
2022-08-17T12:10:32.010Z,8.38
2022-08-17T12:13:00.102Z,8.27
2022-08-17T12:15:32.471Z,8.35
2022-08-17T12:17:59.676Z,9.10
2022-08-17T12:20:34.559Z,8.40
2022-08-17T12:23:10.386Z,8.52
2022-08-17T12:25:43.867Z,7.88
2022-08-17T12:28:23.281Z,8.38
2022-08-17T12:30:52.234Z,9.00
2022-08-17T12:33:25.519Z,8.63
2022-08-17T12:36:03.839Z,8.35
2022-08-17T12:38:36.135Z,8.02
2022-08-17T12:41:24.793Z,8.73
2022-08-17T12:44:01.619Z,8.18
2022-08-17T12:46:46.823Z,8.27
2022-08-17T12:49:22.892Z,7.85
2022-08-17T12:51:51.336Z,9.13
2022-08-17T12:54:23.711Z,8.63
2022-08-17T12:56:50.906Z,9.00
2022-08-17T12:59:30.357Z,8.43
2022-08-17T13:01:57.983Z,8.70
2022-08-17T13:04:26.626Z,8.75
2022-08-17T13:07:00.170Z,8.63
2022-08-17T13:09:35.334Z,8.02
2022-08-17T13:12:05.150Z,8.50
2022-08-17T13:14:33.358Z,8.30
2022-08-17T13:17:06.295Z,8.07
2022-08-17T13:19:45.963Z,7.95
2022-08-17T13:22:13.291Z,7.75
2022-08-17T13:24:49.856Z,7.78
2022-08-17T13:27:20.816Z,8.20
2022-08-17T13:29:51.399Z,8.70
2022-08-17T13:32:23.175Z,8.27
2022-08-17T13:35:14.256Z,7.88
2022-08-17T13:37:48.335Z,7.18
2022-08-17T13:40:15.602Z,7.55
2022-08-17T13:42:51.935Z,7.43
2022-08-17T13:45:39.163Z,7.90
2022-08-17T13:48:14.649Z,8.10
2022-08-17T13:50:45.048Z,7.72
2022-08-17T13:53:24.902Z,7.15
2022-08-17T13:56:33.539Z,7.90
2022-08-17T13:58:56.594Z,7.00
2022-08-17T14:01:44.044Z,6.70
2022-08-17T14:04:16.050Z,7.03
2022-08-17T14:07:06.279Z,7.57
2022-08-17T14:09:37.476Z,7.28
2022-08-17T14:12:07.425Z,7.07
2022-08-17T14:14:34.608Z,7.25
2022-08-17T14:17:01.930Z,7.25
2022-08-17T14:19:29.109Z,7.45
2022-08-17T14:21:58.782Z,6.90
2022-08-17T14:24:31.258Z,7.85
2022-08-17T14:26:59.036Z,7.00
2022-08-17T14:29:27.973Z,6.50
2022-08-17T14:31:55.789Z,6.57
2022-08-17T14:34:23.887Z,6.95
2022-08-17T14:36:51.295Z,7.03
2022-08-17T14:39:19.112Z,6.72
2022-08-17T14:41:46.357Z,6.93
2022-08-17T14:44:13.591Z,6.47
2022-08-17T14:46:41.528Z,6.78
2022-08-17T14:49:11.142Z,6.57
2022-08-17T14:51:43.884Z,6.57
2022-08-17T14:54:12.011Z,6.72
2022-08-17T14:57:11.536Z,5.88
2022-08-17T14:59:47.415Z,6.50
2022-08-17T15:04:47.783Z,6.63
2022-08-17T15:07:15.670Z,7.18
2022-08-17T15:09:42.903Z,7.15
2022-08-17T15:12:16.990Z,6.20
2022-08-17T15:14:44.167Z,6.75
2022-08-17T15:17:12.077Z,7.07
2022-08-17T15:19:39.327Z,6.28
2022-08-17T15:22:06.821Z,6.72
2022-08-17T15:24:34.077Z,6.75
2022-08-17T15:27:01.391Z,7.65
2022-08-17T15:29:29.241Z,7.10
2022-08-17T15:32:00.551Z,6.95
2022-08-17T15:34:28.024Z,7.30
2022-08-17T15:36:55.373Z,6.28
2022-08-17T15:39:22.584Z,6.55
2022-08-17T15:41:58.136Z,7.18
2022-08-17T15:44:32.384Z,6.95
2022-08-17T15:47:02.354Z,6.68
2022-08-17T15:49:29.551Z,7.03
2022-08-17T15:51:56.765Z,6.60
2022-08-17T15:54:24.023Z,6.78
2022-08-17T15:56:51.240Z,7.45
2022-08-17T15:59:19.422Z,6.47
2022-08-17T16:03:16.011Z,7.10
2022-08-17T16:04:34.260Z,6.47
2022-08-17T16:07:01.593Z,7.00
2022-08-17T16:09:28.838Z,7.07
2022-08-17T16:11:56.580Z,6.47
2022-08-17T16:14:30.251Z,6.70
2022-08-17T16:17:01.101Z,6.75
2022-08-17T16:19:28.498Z,6.80
2022-08-17T16:21:55.694Z,6.72
2022-08-17T16:24:22.939Z,6.93
2022-08-17T16:26:50.431Z,7.72
2022-08-17T16:29:17.872Z,7.05
2022-08-17T16:31:45.056Z,6.70
2022-08-17T16:34:16.952Z,6.88
2022-08-17T16:36:54.852Z,7.13
2022-08-17T16:39:24.527Z,6.55
2022-08-17T16:41:51.778Z,6.95
2022-08-17T16:44:20.392Z,6.82
2022-08-17T16:46:48.555Z,6.75
2022-08-17T16:49:27.617Z,7.60
2022-08-17T16:52:04.457Z,6.63
2022-08-17T16:54:31.911Z,6.55
2022-08-17T16:56:59.169Z,7.05
2022-08-17T16:59:31.381Z,6.57
2022-08-17T17:02:10.963Z,6.22
2022-08-17T17:05:02.986Z,6.38
2022-08-17T17:07:39.403Z,7.13
2022-08-17T17:10:09.957Z,6.25
2022-08-17T17:15:28.089Z,6.78
2022-08-17T17:17:57.234Z,7.18
2022-08-17T17:20:29.680Z,7.07
2022-08-17T17:23:09.830Z,6.93
2022-08-17T17:25:53.241Z,6.80
2022-08-17T17:28:32.564Z,7.80
2022-08-17T17:31:02.179Z,6.82
2022-08-17T17:33:37.482Z,6.90
2022-08-17T17:36:07.502Z,7.20
2022-08-17T17:38:39.302Z,6.38
2022-08-17T17:41:09.477Z,6.82
2022-08-17T17:43:40.093Z,7.35
2022-08-17T17:46:27.385Z,6.95
2022-08-17T17:48:56.759Z,6.82
2022-08-17T17:52:03.695Z,7.05
2022-08-17T17:54:37.397Z,7.07
2022-08-17T17:57:24.794Z,7.78
2022-08-17T17:59:57.050Z,7.45
2022-08-17T18:02:52.237Z,6.55
2022-08-17T18:05:38.782Z,7.15
2022-08-17T18:08:18.715Z,7.03
2022-08-17T18:10:55.718Z,7.30
2022-08-17T18:13:33.024Z,7.80
2022-08-17T18:16:01.067Z,7.88
2022-08-17T18:18:38.080Z,8.13
2022-08-17T18:21:15.680Z,7.43
2022-08-17T18:23:57.775Z,7.93
2022-08-17T18:26:36.567Z,7.22
2022-08-17T18:29:24.485Z,8.00
2022-08-17T18:32:10.597Z,7.68
2022-08-17T18:34:47.032Z,7.75
2022-08-17T18:37:27.536Z,8.18
2022-08-17T18:39:54.977Z,8.38
2022-08-17T18:42:26.603Z,8.00
2022-08-17T18:44:55.336Z,8.23
2022-08-17T18:47:27.352Z,8.18
2022-08-17T18:50:00.462Z,9.00
2022-08-17T18:52:28.102Z,8.75
2022-08-17T18:55:01.393Z,8.85
2022-08-17T18:57:32.466Z,7.60
2022-08-17T18:59:59.967Z,9.13
2022-08-17T19:02:44.192Z,8.63
2022-08-17T19:05:26.456Z,8.55
2022-08-17T19:07:53.700Z,8.90
2022-08-17T19:10:20.882Z,8.45
2022-08-17T19:12:52.546Z,7.65
2022-08-17T19:15:24.758Z,8.52
2022-08-17T19:17:55.509Z,8.45
2022-08-17T19:22:49.859Z,8.45
2022-08-17T19:25:24.102Z,8.60
2022-08-17T19:28:21.621Z,8.57
2022-08-17T19:30:51.192Z,9.13
2022-08-17T19:33:19.430Z,8.50
2022-08-17T19:35:55.059Z,8.73
2022-08-17T19:38:22.318Z,8.82
2022-08-17T19:40:58.733Z,8.65
2022-08-17T19:43:41.398Z,9.07
2022-08-17T19:46:15.890Z,8.45
2022-08-17T19:48:51.732Z,8.30
2022-08-17T19:51:19.051Z,8.43
2022-08-17T19:54:05.563Z,8.73
2022-08-17T19:56:36.602Z,9.23
2022-08-17T19:59:22.943Z,8.63
2022-08-17T20:01:50.313Z,8.55
2022-08-17T20:04:32.437Z,8.90
2022-08-17T20:07:20.100Z,8.93
2022-08-17T20:09:50.149Z,9.13
2022-08-17T20:12:19.165Z,9.02
2022-08-17T20:14:58.114Z,8.63
2022-08-17T20:17:30.727Z,10.05
2022-08-17T20:20:04.099Z,9.55
2022-08-17T20:22:34.856Z,8.77
2022-08-17T20:25:19.490Z,9.18
2022-08-17T20:28:05.650Z,9.02
2022-08-17T20:30:33.819Z,8.52
2022-08-17T20:33:02.737Z,9.00
2022-08-17T20:35:32.495Z,9.30
2022-08-17T20:37:59.943Z,8.90
2022-08-17T20:40:29.161Z,9.85
2022-08-17T20:42:56.901Z,10.05
2022-08-17T20:45:26.492Z,9.45
2022-08-17T20:48:26.062Z,9.07
2022-08-17T20:50:52.740Z,8.70
2022-08-17T20:53:38.757Z,9.02
2022-08-17T20:56:06.603Z,10.80
2022-08-17T20:58:38.268Z,10.23
2022-08-17T21:01:20.097Z,10.25
2022-08-17T21:03:51.878Z,10.93
2022-08-17T21:06:21.302Z,10.40
2022-08-17T21:08:54.714Z,9.43
2022-08-17T21:12:03.168Z,9.07
2022-08-17T21:14:23.294Z,8.90
2022-08-17T21:17:12.429Z,9.82
2022-08-17T21:20:10.502Z,9.05
2022-08-17T21:22:49.523Z,8.98
2022-08-17T21:25:24.621Z,9.55
2022-08-17T21:28:21.529Z,9.50
2022-08-17T21:30:55.358Z,9.20
2022-08-17T21:33:25.343Z,9.57
2022-08-17T21:35:52.616Z,9.00
2022-08-17T21:38:22.112Z,9.23
2022-08-17T21:40:53.600Z,9.55
2022-08-17T21:43:26.332Z,9.30
2022-08-17T21:46:16.647Z,9.40
2022-08-17T21:48:48.287Z,9.45
2022-08-17T21:51:20.802Z,8.88
2022-08-17T21:53:50.812Z,9.05
2022-08-17T21:56:24.152Z,9.00
2022-08-17T21:58:56.823Z,8.30
2022-08-17T22:01:29.267Z,8.90
2022-08-17T22:04:18.179Z,8.38
2022-08-17T22:06:52.327Z,8.60
2022-08-17T22:09:32.186Z,8.38
2022-08-17T22:12:09.301Z,8.93
2022-08-17T22:14:52.711Z,8.30
2022-08-17T22:17:27.110Z,8.30
2022-08-17T22:20:00.252Z,8.85
2022-08-17T22:22:33.143Z,9.98
2022-08-17T22:25:02.938Z,8.75
2022-08-17T22:27:47.068Z,8.07
2022-08-17T22:30:17.285Z,8.90
2022-08-17T22:32:45.721Z,9.48
2022-08-17T22:35:39.027Z,8.82
2022-08-17T22:38:21.507Z,8.60
2022-08-17T22:40:56.698Z,9.15
2022-08-17T22:43:26.596Z,8.50
2022-08-17T22:45:55.222Z,8.38
2022-08-17T22:48:27.609Z,8.40
2022-08-17T22:51:12.282Z,8.20
2022-08-17T22:54:07.410Z,8.82
2022-08-17T22:56:53.508Z,8.50
2022-08-17T22:59:39.300Z,8.50
2022-08-17T23:02:19.081Z,8.68
2022-08-17T23:04:51.728Z,8.60
2022-08-17T23:07:19.708Z,8.50
2022-08-17T23:09:47.254Z,8.43
2022-08-17T23:12:16.456Z,8.77
2022-08-17T23:14:46.899Z,9.00
2022-08-17T23:17:14.336Z,8.48
2022-08-17T23:19:41.587Z,8.90
2022-08-17T23:22:10.072Z,9.00
2022-08-17T23:24:43.447Z,9.30
2022-08-17T23:27:10.697Z,9.18
2022-08-17T23:29:42.168Z,9.02
2022-08-17T23:32:11.242Z,9.10
2022-08-17T23:34:39.463Z,9.55
2022-08-17T23:37:07.245Z,8.57
2022-08-17T23:39:35.092Z,8.45
2022-08-17T23:42:05.114Z,8.95
2022-08-17T23:44:33.784Z,8.90
2022-08-17T23:47:03.754Z,8.63
2022-08-17T23:49:32.151Z,9.35
2022-08-17T23:52:00.496Z,8.70
2022-08-17T23:54:30.211Z,8.45
2022-08-17T23:56:57.451Z,8.60
2022-08-17T23:59:24.701Z,8.50
